sensor_id;sensor_type;location;lat;lon;timestamp;P1;durP1;ratioP1;P2;durP2;ratioP2
33006;SDS011;19361;51.598;7.650;2023-07-09T00:00:22;7.40;;;5.10;;
33006;SDS011;19361;51.598;7.650;2023-07-09T00:05:44;7.30;;;5.75;;
33006;SDS011;19361;51.598;7.650;2023-07-09T00:11:08;6.55;;;5.25;;
33006;SDS011;19361;51.598;7.650;2023-07-09T00:16:29;8.48;;;5.60;;
33006;SDS011;19361;51.598;7.650;2023-07-09T00:21:50;7.60;;;5.40;;
33006;SDS011;19361;51.598;7.650;2023-07-09T00:27:14;6.63;;;5.15;;
33006;SDS011;19361;51.598;7.650;2023-07-09T00:32:38;6.15;;;5.15;;
33006;SDS011;19361;51.598;7.650;2023-07-09T00:38:03;6.30;;;5.50;;
33006;SDS011;19361;51.598;7.650;2023-07-09T00:43:25;9.90;;;5.65;;
33006;SDS011;19361;51.598;7.650;2023-07-09T00:48:52;8.77;;;5.43;;
33006;SDS011;19361;51.598;7.650;2023-07-09T00:54:23;8.95;;;5.85;;
33006;SDS011;19361;51.598;7.650;2023-07-09T00:59:58;7.00;;;5.82;;
33006;SDS011;19361;51.598;7.650;2023-07-09T01:05:30;6.38;;;5.40;;
33006;SDS011;19361;51.598;7.650;2023-07-09T01:10:51;6.30;;;5.55;;
33006;SDS011;19361;51.598;7.650;2023-07-09T01:16:12;9.23;;;5.90;;
33006;SDS011;19361;51.598;7.650;2023-07-09T01:21:33;7.85;;;5.60;;
33006;SDS011;19361;51.598;7.650;2023-07-09T01:26:54;9.10;;;5.97;;
33006;SDS011;19361;51.598;7.650;2023-07-09T01:32:16;6.55;;;5.40;;
33006;SDS011;19361;51.598;7.650;2023-07-09T01:37:39;8.77;;;5.57;;
33006;SDS011;19361;51.598;7.650;2023-07-09T01:43:00;7.80;;;5.40;;
33006;SDS011;19361;51.598;7.650;2023-07-09T01:48:26;10.30;;;5.47;;
33006;SDS011;19361;51.598;7.650;2023-07-09T01:53:48;6.50;;;5.47;;
33006;SDS011;19361;51.598;7.650;2023-07-09T01:59:09;6.50;;;5.60;;
33006;SDS011;19361;51.598;7.650;2023-07-09T02:04:31;5.82;;;5.13;;
33006;SDS011;19361;51.598;7.650;2023-07-09T02:09:52;7.25;;;5.28;;
33006;SDS011;19361;51.598;7.650;2023-07-09T02:15:14;8.20;;;5.85;;
33006;SDS011;19361;51.598;7.650;2023-07-09T02:20:35;6.85;;;5.50;;
33006;SDS011;19361;51.598;7.650;2023-07-09T02:25:57;8.23;;;5.53;;
33006;SDS011;19361;51.598;7.650;2023-07-09T02:31:18;7.75;;;5.57;;
33006;SDS011;19361;51.598;7.650;2023-07-09T02:36:39;11.05;;;6.65;;
33006;SDS011;19361;51.598;7.650;2023-07-09T02:42:04;6.13;;;5.43;;
33006;SDS011;19361;51.598;7.650;2023-07-09T02:47:25;8.65;;;5.60;;
33006;SDS011;19361;51.598;7.650;2023-07-09T02:52:46;9.07;;;5.90;;
33006;SDS011;19361;51.598;7.650;2023-07-09T02:58:07;6.93;;;5.72;;
33006;SDS011;19361;51.598;7.650;2023-07-09T03:03:28;7.03;;;5.60;;
33006;SDS011;19361;51.598;7.650;2023-07-09T03:08:50;8.20;;;5.85;;
33006;SDS011;19361;51.598;7.650;2023-07-09T03:14:12;10.40;;;5.78;;
33006;SDS011;19361;51.598;7.650;2023-07-09T03:19:33;9.27;;;5.88;;
33006;SDS011;19361;51.598;7.650;2023-07-09T03:24:54;10.80;;;6.35;;
33006;SDS011;19361;51.598;7.650;2023-07-09T03:30:15;7.45;;;5.93;;
33006;SDS011;19361;51.598;7.650;2023-07-09T03:35:36;8.05;;;6.18;;
33006;SDS011;19361;51.598;7.650;2023-07-09T03:40:58;9.25;;;5.40;;
33006;SDS011;19361;51.598;7.650;2023-07-09T03:46:19;7.88;;;5.82;;
33006;SDS011;19361;51.598;7.650;2023-07-09T03:51:41;8.10;;;5.43;;
33006;SDS011;19361;51.598;7.650;2023-07-09T03:57:02;5.93;;;5.30;;
33006;SDS011;19361;51.598;7.650;2023-07-09T04:02:23;7.95;;;5.93;;
33006;SDS011;19361;51.598;7.650;2023-07-09T04:07:44;8.63;;;5.95;;
33006;SDS011;19361;51.598;7.650;2023-07-09T04:13:05;6.93;;;5.90;;
33006;SDS011;19361;51.598;7.650;2023-07-09T04:18:27;8.93;;;5.90;;
33006;SDS011;19361;51.598;7.650;2023-07-09T04:23:48;7.25;;;5.38;;
33006;SDS011;19361;51.598;7.650;2023-07-09T04:29:09;6.50;;;5.63;;
33006;SDS011;19361;51.598;7.650;2023-07-09T04:34:30;8.50;;;5.03;;
33006;SDS011;19361;51.598;7.650;2023-07-09T04:39:52;10.45;;;6.47;;
33006;SDS011;19361;51.598;7.650;2023-07-09T04:45:13;11.82;;;6.68;;
33006;SDS011;19361;51.598;7.650;2023-07-09T04:50:34;10.27;;;6.43;;
33006;SDS011;19361;51.598;7.650;2023-07-09T04:55:55;7.07;;;5.30;;
33006;SDS011;19361;51.598;7.650;2023-07-09T05:01:17;11.02;;;5.72;;
33006;SDS011;19361;51.598;7.650;2023-07-09T05:06:38;7.80;;;4.93;;
33006;SDS011;19361;51.598;7.650;2023-07-09T05:11:59;10.10;;;5.85;;
33006;SDS011;19361;51.598;7.650;2023-07-09T05:17:21;7.18;;;5.20;;
33006;SDS011;19361;51.598;7.650;2023-07-09T05:22:43;11.93;;;6.00;;
33006;SDS011;19361;51.598;7.650;2023-07-09T05:28:04;8.93;;;6.30;;
33006;SDS011;19361;51.598;7.650;2023-07-09T05:33:25;9.48;;;6.15;;
33006;SDS011;19361;51.598;7.650;2023-07-09T05:38:46;8.05;;;6.28;;
33006;SDS011;19361;51.598;7.650;2023-07-09T05:44:07;8.38;;;6.40;;
33006;SDS011;19361;51.598;7.650;2023-07-09T05:49:29;8.10;;;5.78;;
33006;SDS011;19361;51.598;7.650;2023-07-09T05:54:50;8.23;;;4.85;;
33006;SDS011;19361;51.598;7.650;2023-07-09T06:00:13;7.15;;;5.25;;
33006;SDS011;19361;51.598;7.650;2023-07-09T06:05:35;8.63;;;5.35;;
33006;SDS011;19361;51.598;7.650;2023-07-09T06:10:58;5.97;;;4.65;;
33006;SDS011;19361;51.598;7.650;2023-07-09T06:16:22;8.40;;;4.80;;
33006;SDS011;19361;51.598;7.650;2023-07-09T06:21:43;6.65;;;4.50;;
33006;SDS011;19361;51.598;7.650;2023-07-09T06:27:04;10.15;;;4.70;;
33006;SDS011;19361;51.598;7.650;2023-07-09T06:32:25;13.02;;;5.60;;
33006;SDS011;19361;51.598;7.650;2023-07-09T06:37:46;7.57;;;4.88;;
33006;SDS011;19361;51.598;7.650;2023-07-09T06:43:07;6.75;;;5.72;;
33006;SDS011;19361;51.598;7.650;2023-07-09T06:48:29;7.88;;;5.20;;
33006;SDS011;19361;51.598;7.650;2023-07-09T06:53:50;7.75;;;5.30;;
33006;SDS011;19361;51.598;7.650;2023-07-09T06:59:11;8.38;;;6.10;;
33006;SDS011;19361;51.598;7.650;2023-07-09T07:04:32;7.72;;;6.28;;
33006;SDS011;19361;51.598;7.650;2023-07-09T07:09:53;7.47;;;5.97;;
33006;SDS011;19361;51.598;7.650;2023-07-09T07:15:15;9.48;;;5.88;;
33006;SDS011;19361;51.598;7.650;2023-07-09T07:20:37;8.95;;;5.00;;
33006;SDS011;19361;51.598;7.650;2023-07-09T07:25:58;8.45;;;5.28;;
33006;SDS011;19361;51.598;7.650;2023-07-09T07:31:20;8.07;;;5.72;;
33006;SDS011;19361;51.598;7.650;2023-07-09T07:36:41;10.20;;;5.72;;
33006;SDS011;19361;51.598;7.650;2023-07-09T07:42:02;6.80;;;5.80;;
33006;SDS011;19361;51.598;7.650;2023-07-09T07:47:23;12.00;;;5.68;;
33006;SDS011;19361;51.598;7.650;2023-07-09T07:52:45;7.38;;;5.80;;
33006;SDS011;19361;51.598;7.650;2023-07-09T07:58:13;7.18;;;5.40;;
33006;SDS011;19361;51.598;7.650;2023-07-09T08:08:55;10.20;;;6.55;;
33006;SDS011;19361;51.598;7.650;2023-07-09T08:14:16;8.73;;;5.70;;
33006;SDS011;19361;51.598;7.650;2023-07-09T08:19:44;9.68;;;7.13;;
33006;SDS011;19361;51.598;7.650;2023-07-09T08:25:13;12.05;;;5.90;;
33006;SDS011;19361;51.598;7.650;2023-07-09T08:30:35;10.70;;;6.00;;
33006;SDS011;19361;51.598;7.650;2023-07-09T08:35:56;7.60;;;6.00;;
33006;SDS011;19361;51.598;7.650;2023-07-09T08:52:55;9.35;;;5.95;;
33006;SDS011;19361;51.598;7.650;2023-07-09T08:58:21;8.20;;;5.75;;
33006;SDS011;19361;51.598;7.650;2023-07-09T09:03:53;10.30;;;6.68;;
33006;SDS011;19361;51.598;7.650;2023-07-09T09:09:32;10.32;;;5.82;;
33006;SDS011;19361;51.598;7.650;2023-07-09T09:15:02;12.48;;;6.53;;
33006;SDS011;19361;51.598;7.650;2023-07-09T09:20:30;11.32;;;6.13;;
33006;SDS011;19361;51.598;7.650;2023-07-09T09:25:52;8.05;;;5.65;;
33006;SDS011;19361;51.598;7.650;2023-07-09T09:31:17;8.00;;;5.72;;
33006;SDS011;19361;51.598;7.650;2023-07-09T09:36:39;8.75;;;5.97;;
33006;SDS011;19361;51.598;7.650;2023-07-09T09:42:01;15.82;;;6.15;;
33006;SDS011;19361;51.598;7.650;2023-07-09T09:47:25;7.80;;;6.38;;
33006;SDS011;19361;51.598;7.650;2023-07-09T09:52:48;12.13;;;6.83;;
33006;SDS011;19361;51.598;7.650;2023-07-09T09:58:11;7.57;;;5.50;;
33006;SDS011;19361;51.598;7.650;2023-07-09T10:03:36;8.77;;;6.05;;
33006;SDS011;19361;51.598;7.650;2023-07-09T10:09:04;8.02;;;5.80;;
33006;SDS011;19361;51.598;7.650;2023-07-09T10:20:31;9.40;;;5.95;;
33006;SDS011;19361;51.598;7.650;2023-07-09T10:26:27;9.23;;;6.23;;
33006;SDS011;19361;51.598;7.650;2023-07-09T10:43:35;8.68;;;5.95;;
33006;SDS011;19361;51.598;7.650;2023-07-09T10:49:04;8.52;;;5.43;;
33006;SDS011;19361;51.598;7.650;2023-07-09T10:54:32;8.80;;;5.15;;
33006;SDS011;19361;51.598;7.650;2023-07-09T11:00:14;8.30;;;5.13;;
33006;SDS011;19361;51.598;7.650;2023-07-09T11:05:39;5.95;;;4.95;;
33006;SDS011;19361;51.598;7.650;2023-07-09T11:11:04;10.05;;;5.07;;
33006;SDS011;19361;51.598;7.650;2023-07-09T11:16:39;10.18;;;5.55;;
33006;SDS011;19361;51.598;7.650;2023-07-09T11:22:06;8.35;;;5.45;;
33006;SDS011;19361;51.598;7.650;2023-07-09T11:28:04;11.48;;;5.45;;
33006;SDS011;19361;51.598;7.650;2023-07-09T11:33:29;7.18;;;5.03;;
33006;SDS011;19361;51.598;7.650;2023-07-09T11:38:51;7.80;;;5.28;;
33006;SDS011;19361;51.598;7.650;2023-07-09T11:44:18;5.57;;;4.78;;
33006;SDS011;19361;51.598;7.650;2023-07-09T12:00:53;17.85;;;5.13;;
33006;SDS011;19361;51.598;7.650;2023-07-09T12:11:44;5.72;;;4.72;;
33006;SDS011;19361;51.598;7.650;2023-07-09T12:17:09;5.60;;;4.80;;
33006;SDS011;19361;51.598;7.650;2023-07-09T12:22:30;8.18;;;5.10;;
33006;SDS011;19361;51.598;7.650;2023-07-09T12:27:52;7.82;;;4.93;;
33006;SDS011;19361;51.598;7.650;2023-07-09T12:33:20;5.97;;;5.07;;
33006;SDS011;19361;51.598;7.650;2023-07-09T12:38:48;6.68;;;5.15;;
33006;SDS011;19361;51.598;7.650;2023-07-09T12:44:18;7.43;;;4.90;;
33006;SDS011;19361;51.598;7.650;2023-07-09T12:49:42;8.77;;;4.97;;
33006;SDS011;19361;51.598;7.650;2023-07-09T12:55:05;6.93;;;5.25;;
33006;SDS011;19361;51.598;7.650;2023-07-09T13:00:28;5.95;;;4.82;;
33006;SDS011;19361;51.598;7.650;2023-07-09T13:05:58;9.77;;;7.28;;
33006;SDS011;19361;51.598;7.650;2023-07-09T13:11:24;6.90;;;4.72;;
33006;SDS011;19361;51.598;7.650;2023-07-09T13:16:46;11.85;;;4.82;;
33006;SDS011;19361;51.598;7.650;2023-07-09T13:22:11;7.80;;;5.45;;
33006;SDS011;19361;51.598;7.650;2023-07-09T13:27:36;7.13;;;4.95;;
33006;SDS011;19361;51.598;7.650;2023-07-09T13:32:57;8.77;;;4.75;;
33006;SDS011;19361;51.598;7.650;2023-07-09T13:38:20;10.98;;;4.38;;
33006;SDS011;19361;51.598;7.650;2023-07-09T13:43:46;10.68;;;4.25;;
33006;SDS011;19361;51.598;7.650;2023-07-09T13:49:12;6.53;;;3.70;;
33006;SDS011;19361;51.598;7.650;2023-07-09T13:54:39;5.10;;;3.45;;
33006;SDS011;19361;51.598;7.650;2023-07-09T14:00:00;4.95;;;3.90;;
33006;SDS011;19361;51.598;7.650;2023-07-09T14:05:21;7.63;;;3.45;;
33006;SDS011;19361;51.598;7.650;2023-07-09T14:10:42;5.00;;;3.80;;
33006;SDS011;19361;51.598;7.650;2023-07-09T14:16:04;4.78;;;3.33;;
33006;SDS011;19361;51.598;7.650;2023-07-09T14:21:26;6.45;;;3.65;;
33006;SDS011;19361;51.598;7.650;2023-07-09T14:26:47;4.50;;;3.63;;
33006;SDS011;19361;51.598;7.650;2023-07-09T14:32:27;5.85;;;3.47;;
33006;SDS011;19361;51.598;7.650;2023-07-09T14:37:53;3.80;;;3.40;;
33006;SDS011;19361;51.598;7.650;2023-07-09T14:43:14;4.35;;;3.60;;
33006;SDS011;19361;51.598;7.650;2023-07-09T14:48:36;5.68;;;3.55;;
33006;SDS011;19361;51.598;7.650;2023-07-09T14:53:57;4.68;;;4.07;;
33006;SDS011;19361;51.598;7.650;2023-07-09T14:59:18;6.93;;;4.47;;
33006;SDS011;19361;51.598;7.650;2023-07-09T15:04:40;20.70;;;4.80;;
33006;SDS011;19361;51.598;7.650;2023-07-09T15:10:02;5.00;;;4.15;;
33006;SDS011;19361;51.598;7.650;2023-07-09T15:15:28;6.38;;;4.60;;
33006;SDS011;19361;51.598;7.650;2023-07-09T15:21:00;9.32;;;4.57;;
33006;SDS011;19361;51.598;7.650;2023-07-09T15:26:22;8.90;;;4.68;;
33006;SDS011;19361;51.598;7.650;2023-07-09T15:31:44;9.40;;;4.93;;
33006;SDS011;19361;51.598;7.650;2023-07-09T15:37:08;21.02;;;4.78;;
33006;SDS011;19361;51.598;7.650;2023-07-09T15:42:40;11.02;;;4.40;;
33006;SDS011;19361;51.598;7.650;2023-07-09T15:48:01;10.23;;;3.97;;
33006;SDS011;19361;51.598;7.650;2023-07-09T15:53:25;8.43;;;3.50;;
33006;SDS011;19361;51.598;7.650;2023-07-09T15:58:46;6.03;;;3.40;;
33006;SDS011;19361;51.598;7.650;2023-07-09T16:04:07;4.15;;;3.10;;
33006;SDS011;19361;51.598;7.650;2023-07-09T16:09:29;5.05;;;2.85;;
33006;SDS011;19361;51.598;7.650;2023-07-09T16:14:50;3.17;;;2.20;;
33006;SDS011;19361;51.598;7.650;2023-07-09T16:20:13;2.70;;;2.15;;
33006;SDS011;19361;51.598;7.650;2023-07-09T16:25:36;4.03;;;2.90;;
33006;SDS011;19361;51.598;7.650;2023-07-09T16:30:57;4.82;;;3.63;;
33006;SDS011;19361;51.598;7.650;2023-07-09T16:36:19;5.80;;;4.03;;
33006;SDS011;19361;51.598;7.650;2023-07-09T16:41:40;5.63;;;3.60;;
33006;SDS011;19361;51.598;7.650;2023-07-09T16:47:02;5.47;;;3.53;;
33006;SDS011;19361;51.598;7.650;2023-07-09T16:52:35;6.15;;;3.85;;
33006;SDS011;19361;51.598;7.650;2023-07-09T16:57:56;7.70;;;4.32;;
33006;SDS011;19361;51.598;7.650;2023-07-09T17:03:18;6.70;;;3.97;;
33006;SDS011;19361;51.598;7.650;2023-07-09T17:08:39;6.40;;;3.65;;
33006;SDS011;19361;51.598;7.650;2023-07-09T17:14:01;6.28;;;3.40;;
33006;SDS011;19361;51.598;7.650;2023-07-09T17:19:22;3.40;;;3.10;;
33006;SDS011;19361;51.598;7.650;2023-07-09T17:24:43;4.68;;;3.80;;
33006;SDS011;19361;51.598;7.650;2023-07-09T17:30:09;5.00;;;3.33;;
33006;SDS011;19361;51.598;7.650;2023-07-09T17:35:40;6.18;;;3.95;;
33006;SDS011;19361;51.598;7.650;2023-07-09T17:41:05;7.43;;;4.45;;
33006;SDS011;19361;51.598;7.650;2023-07-09T17:46:26;7.15;;;5.05;;
33006;SDS011;19361;51.598;7.650;2023-07-09T17:51:48;6.68;;;4.13;;
33006;SDS011;19361;51.598;7.650;2023-07-09T17:57:19;8.27;;;4.25;;
33006;SDS011;19361;51.598;7.650;2023-07-09T18:02:46;8.05;;;4.20;;
33006;SDS011;19361;51.598;7.650;2023-07-09T18:08:14;10.85;;;5.20;;
33006;SDS011;19361;51.598;7.650;2023-07-09T18:13:36;7.18;;;4.80;;
33006;SDS011;19361;51.598;7.650;2023-07-09T18:18:57;8.45;;;5.15;;
33006;SDS011;19361;51.598;7.650;2023-07-09T18:24:23;7.45;;;4.78;;
33006;SDS011;19361;51.598;7.650;2023-07-09T18:29:45;7.82;;;4.40;;
33006;SDS011;19361;51.598;7.650;2023-07-09T18:35:19;6.43;;;4.10;;
33006;SDS011;19361;51.598;7.650;2023-07-09T18:40:45;11.82;;;4.70;;
33006;SDS011;19361;51.598;7.650;2023-07-09T18:46:07;8.23;;;4.75;;
33006;SDS011;19361;51.598;7.650;2023-07-09T18:51:30;10.75;;;4.22;;
33006;SDS011;19361;51.598;7.650;2023-07-09T18:56:51;10.10;;;4.50;;
33006;SDS011;19361;51.598;7.650;2023-07-09T19:02:16;6.93;;;4.57;;
33006;SDS011;19361;51.598;7.650;2023-07-09T19:07:43;5.97;;;4.07;;
33006;SDS011;19361;51.598;7.650;2023-07-09T19:13:07;5.82;;;4.38;;
33006;SDS011;19361;51.598;7.650;2023-07-09T19:18:30;5.13;;;3.88;;
33006;SDS011;19361;51.598;7.650;2023-07-09T19:23:55;9.90;;;4.57;;
33006;SDS011;19361;51.598;7.650;2023-07-09T19:29:17;7.05;;;4.05;;
33006;SDS011;19361;51.598;7.650;2023-07-09T19:34:39;8.52;;;4.35;;
33006;SDS011;19361;51.598;7.650;2023-07-09T19:40:02;6.85;;;3.97;;
33006;SDS011;19361;51.598;7.650;2023-07-09T19:45:31;8.75;;;5.03;;
33006;SDS011;19361;51.598;7.650;2023-07-09T19:50:58;5.32;;;4.40;;
33006;SDS011;19361;51.598;7.650;2023-07-09T19:56:19;7.40;;;4.25;;
33006;SDS011;19361;51.598;7.650;2023-07-09T20:01:40;6.68;;;4.85;;
33006;SDS011;19361;51.598;7.650;2023-07-09T20:07:01;7.78;;;4.95;;
33006;SDS011;19361;51.598;7.650;2023-07-09T20:12:23;6.65;;;4.40;;
33006;SDS011;19361;51.598;7.650;2023-07-09T20:17:51;5.72;;;4.57;;
33006;SDS011;19361;51.598;7.650;2023-07-09T20:23:16;5.10;;;3.88;;
33006;SDS011;19361;51.598;7.650;2023-07-09T20:28:37;5.10;;;4.50;;
33006;SDS011;19361;51.598;7.650;2023-07-09T20:34:00;7.65;;;4.85;;
33006;SDS011;19361;51.598;7.650;2023-07-09T20:39:33;8.40;;;5.10;;
33006;SDS011;19361;51.598;7.650;2023-07-09T20:44:54;7.97;;;5.05;;
33006;SDS011;19361;51.598;7.650;2023-07-09T20:50:16;7.47;;;5.03;;
33006;SDS011;19361;51.598;7.650;2023-07-09T20:55:41;7.28;;;4.97;;
33006;SDS011;19361;51.598;7.650;2023-07-09T21:01:03;7.13;;;4.95;;
33006;SDS011;19361;51.598;7.650;2023-07-09T21:06:24;8.30;;;5.35;;
33006;SDS011;19361;51.598;7.650;2023-07-09T21:11:47;9.40;;;5.60;;
33006;SDS011;19361;51.598;7.650;2023-07-09T21:17:18;9.35;;;5.53;;
33006;SDS011;19361;51.598;7.650;2023-07-09T21:22:43;6.45;;;5.38;;
33006;SDS011;19361;51.598;7.650;2023-07-09T21:28:04;6.28;;;4.97;;
33006;SDS011;19361;51.598;7.650;2023-07-09T21:33:25;7.90;;;5.68;;
33006;SDS011;19361;51.598;7.650;2023-07-09T21:38:49;9.98;;;6.13;;
33006;SDS011;19361;51.598;7.650;2023-07-09T21:44:10;11.63;;;5.75;;
33006;SDS011;19361;51.598;7.650;2023-07-09T21:49:35;10.25;;;6.05;;
33006;SDS011;19361;51.598;7.650;2023-07-09T21:54:59;14.57;;;6.93;;
33006;SDS011;19361;51.598;7.650;2023-07-09T22:00:24;13.00;;;7.22;;
33006;SDS011;19361;51.598;7.650;2023-07-09T22:05:47;10.30;;;6.97;;
33006;SDS011;19361;51.598;7.650;2023-07-09T22:17:08;12.50;;;7.25;;
33006;SDS011;19361;51.598;7.650;2023-07-09T22:22:29;11.20;;;7.82;;
33006;SDS011;19361;51.598;7.650;2023-07-09T22:27:51;12.55;;;8.13;;
33006;SDS011;19361;51.598;7.650;2023-07-09T22:33:12;13.00;;;7.25;;
33006;SDS011;19361;51.598;7.650;2023-07-09T22:38:34;13.70;;;6.85;;
33006;SDS011;19361;51.598;7.650;2023-07-09T22:43:55;15.98;;;7.10;;
33006;SDS011;19361;51.598;7.650;2023-07-09T22:49:17;10.85;;;6.47;;
33006;SDS011;19361;51.598;7.650;2023-07-09T22:54:38;10.73;;;5.93;;
33006;SDS011;19361;51.598;7.650;2023-07-09T22:59:59;11.52;;;6.80;;
33006;SDS011;19361;51.598;7.650;2023-07-09T23:05:20;12.48;;;6.72;;
33006;SDS011;19361;51.598;7.650;2023-07-09T23:10:42;12.73;;;7.05;;
33006;SDS011;19361;51.598;7.650;2023-07-09T23:16:03;12.45;;;6.78;;
33006;SDS011;19361;51.598;7.650;2023-07-09T23:21:24;10.98;;;7.60;;
33006;SDS011;19361;51.598;7.650;2023-07-09T23:26:46;14.40;;;8.25;;
33006;SDS011;19361;51.598;7.650;2023-07-09T23:32:13;16.77;;;8.40;;
33006;SDS011;19361;51.598;7.650;2023-07-09T23:37:35;13.77;;;9.68;;
33006;SDS011;19361;51.598;7.650;2023-07-09T23:42:57;18.33;;;9.18;;
33006;SDS011;19361;51.598;7.650;2023-07-09T23:48:23;15.68;;;7.80;;
33006;SDS011;19361;51.598;7.650;2023-07-09T23:53:47;15.02;;;8.38;;
33006;SDS011;19361;51.598;7.650;2023-07-09T23:59:08;12.70;;;7.40;;
